createdAt,value
2019-05-01T00:00:15.955Z,21.70
2019-05-01T00:01:10.154Z,21.20
2019-05-01T00:02:09.123Z,21.00
2019-05-01T00:03:09.105Z,21.40
2019-05-01T00:04:09.104Z,21.50
2019-05-01T00:05:09.109Z,21.70
2019-05-01T00:06:09.133Z,21.80
2019-05-01T00:07:09.088Z,20.50
2019-05-01T00:08:09.901Z,21.10
2019-05-01T00:09:09.073Z,21.20
2019-05-01T00:10:09.191Z,20.60
2019-05-01T00:11:09.901Z,20.60
2019-05-01T00:12:09.030Z,21.20
2019-05-01T00:13:08.998Z,20.70
2019-05-01T00:14:08.978Z,23.00
2019-05-01T00:15:08.983Z,22.30
2019-05-01T00:16:08.979Z,23.10
2019-05-01T00:17:08.996Z,21.90
2019-05-01T00:18:08.945Z,21.70
2019-05-01T00:19:08.965Z,20.80
2019-05-01T00:20:08.919Z,20.70
2019-05-01T00:21:08.922Z,21.10
2019-05-01T00:22:08.932Z,20.00
2019-05-01T00:23:08.887Z,19.50
2019-05-01T00:24:09.392Z,19.50
2019-05-01T00:25:08.901Z,18.90
2019-05-01T00:26:08.901Z,18.30
2019-05-01T00:27:08.904Z,19.40
2019-05-01T00:28:08.857Z,19.50
2019-05-01T00:29:08.837Z,19.40
2019-05-01T00:30:08.840Z,18.80
2019-05-01T00:31:09.429Z,18.10
2019-05-01T00:32:08.846Z,19.10
2019-05-01T00:33:08.792Z,18.10
2019-05-01T00:34:08.763Z,18.10
2019-05-01T00:35:08.762Z,18.20
2019-05-01T00:36:08.749Z,17.70
2019-05-01T00:37:09.387Z,17.10
2019-05-01T00:38:08.762Z,17.70
2019-05-01T00:39:08.732Z,17.20
2019-05-01T00:40:08.700Z,16.90
2019-05-01T00:41:08.718Z,17.30
2019-05-01T00:42:12.388Z,16.70
2019-05-01T00:43:08.673Z,17.90
2019-05-01T00:44:08.679Z,17.20
2019-05-01T00:45:08.668Z,16.90
2019-05-01T00:46:08.637Z,16.90
2019-05-01T00:47:09.395Z,17.10
2019-05-01T00:48:08.637Z,16.10
2019-05-01T00:49:08.608Z,16.50
2019-05-01T00:50:09.383Z,16.90
2019-05-01T00:51:09.380Z,16.90
2019-05-01T00:52:09.378Z,17.60
2019-05-01T00:53:08.653Z,17.50
2019-05-01T00:54:08.571Z,16.80
2019-05-01T00:55:08.635Z,17.40
2019-05-01T00:56:08.573Z,17.60
2019-05-01T00:57:08.518Z,17.20
2019-05-01T00:58:08.587Z,17.60
2019-05-01T00:59:08.972Z,17.40
2019-05-01T01:00:08.480Z,18.00
2019-05-01T01:01:08.483Z,17.20
2019-05-01T01:02:08.481Z,17.90
2019-05-01T01:03:08.485Z,18.30
2019-05-01T01:04:08.486Z,18.20
2019-05-01T01:05:08.435Z,18.40
2019-05-01T01:06:08.926Z,18.50
2019-05-01T01:07:09.380Z,19.60
2019-05-01T01:08:09.369Z,18.60
2019-05-01T01:09:08.432Z,17.70
2019-05-01T01:10:08.427Z,18.10
2019-05-01T01:11:08.380Z,17.60
2019-05-01T01:12:08.359Z,17.80
2019-05-01T01:13:08.392Z,18.00
2019-05-01T01:14:08.355Z,18.10
2019-05-01T01:15:08.371Z,18.50
2019-05-01T01:16:08.334Z,17.80
2019-05-01T01:17:08.374Z,18.00
2019-05-01T01:18:08.881Z,19.10
2019-05-01T01:19:08.326Z,19.50
2019-05-01T01:20:08.284Z,19.10
2019-05-01T01:21:08.311Z,18.70
2019-05-01T01:22:08.295Z,18.90
2019-05-01T01:23:08.281Z,19.50
2019-05-01T01:24:08.228Z,19.20
2019-05-01T01:25:08.236Z,19.70
2019-05-01T01:26:08.244Z,19.90
2019-05-01T01:27:08.183Z,19.40
2019-05-01T01:28:08.256Z,19.80
2019-05-01T01:29:08.166Z,19.90
2019-05-01T01:30:08.910Z,19.90
2019-05-01T01:31:08.906Z,19.60
2019-05-01T01:32:08.174Z,18.90
2019-05-01T01:33:08.173Z,19.80
2019-05-01T01:34:08.126Z,20.20
2019-05-01T01:35:08.116Z,19.60
2019-05-01T01:36:08.204Z,18.90
2019-05-01T01:37:08.108Z,19.30
2019-05-01T01:38:08.139Z,20.10
2019-05-01T01:39:08.058Z,19.40
2019-05-01T01:40:08.044Z,19.70
2019-05-01T01:41:08.080Z,19.40
2019-05-01T01:42:08.032Z,20.70
2019-05-01T01:43:08.856Z,20.90
2019-05-01T01:44:08.871Z,21.10
2019-05-01T01:45:07.992Z,21.00
2019-05-01T01:46:07.975Z,21.40
2019-05-01T01:47:08.017Z,20.90
2019-05-01T01:48:07.983Z,20.80
2019-05-01T01:49:08.027Z,21.40
2019-05-01T01:50:08.018Z,20.70
2019-05-01T01:51:07.931Z,21.10
2019-05-01T01:52:08.843Z,20.90
2019-05-01T01:53:07.922Z,20.40
2019-05-01T01:54:07.888Z,21.60
2019-05-01T01:55:07.967Z,21.40
2019-05-01T01:56:07.889Z,21.60
2019-05-01T01:57:07.903Z,21.20
2019-05-01T01:58:07.852Z,21.80
2019-05-01T01:59:07.896Z,22.00
2019-05-01T02:00:07.830Z,21.70
2019-05-01T02:01:09.675Z,21.40
2019-05-01T02:02:07.877Z,20.60
2019-05-01T02:03:07.845Z,22.90
2019-05-01T02:04:07.878Z,23.00
2019-05-01T02:05:07.791Z,21.90
2019-05-01T02:06:07.755Z,23.70
2019-05-01T02:07:07.839Z,23.70
2019-05-01T02:08:09.047Z,22.80
2019-05-01T02:09:10.379Z,22.80
2019-05-01T02:10:07.745Z,22.90
2019-05-01T02:11:07.782Z,22.30
2019-05-01T02:12:07.700Z,23.90
2019-05-01T02:13:08.421Z,23.20
2019-05-01T02:14:07.814Z,24.20
2019-05-01T02:15:07.694Z,24.30
2019-05-01T02:16:07.672Z,25.00
2019-05-01T02:17:07.713Z,24.70
2019-05-01T02:18:07.626Z,24.90
2019-05-01T02:19:07.624Z,24.20
2019-05-01T02:20:07.617Z,24.10
2019-05-01T02:21:07.644Z,24.70
2019-05-01T02:22:07.606Z,25.20
2019-05-01T02:23:07.611Z,25.00
2019-05-01T02:24:07.567Z,25.50
2019-05-01T02:25:07.595Z,25.40
2019-05-01T02:26:07.599Z,24.80
2019-05-01T02:27:07.533Z,25.10
2019-05-01T02:28:07.657Z,25.00
2019-05-01T02:29:08.329Z,25.10
2019-05-01T02:30:08.330Z,23.80
2019-05-01T02:31:07.559Z,25.50
2019-05-01T02:32:07.483Z,24.60
2019-05-01T02:33:07.491Z,24.10
2019-05-01T02:34:07.485Z,24.20
2019-05-01T02:35:08.333Z,25.00
2019-05-01T02:36:08.325Z,24.50
2019-05-01T02:37:07.520Z,25.40
2019-05-01T02:38:07.421Z,24.80
2019-05-01T02:39:07.446Z,24.30
2019-05-01T02:40:07.414Z,24.30
2019-05-01T02:41:08.318Z,23.70
2019-05-01T02:42:07.424Z,23.70
2019-05-01T02:43:08.318Z,23.20
2019-05-01T02:44:07.378Z,23.30
2019-05-01T02:45:07.362Z,22.80
2019-05-01T02:46:07.332Z,22.70
2019-05-01T02:47:07.322Z,22.90
2019-05-01T02:48:07.312Z,23.30
2019-05-01T02:49:07.295Z,22.80
2019-05-01T02:50:07.328Z,22.20
2019-05-01T02:51:07.293Z,22.40
2019-05-01T02:52:07.299Z,22.20
2019-05-01T02:53:07.254Z,21.90
2019-05-01T02:54:07.244Z,22.10
2019-05-01T02:55:07.828Z,21.40
2019-05-01T02:56:07.265Z,21.90
2019-05-01T02:57:07.256Z,21.50
2019-05-01T02:58:07.226Z,21.50
2019-05-01T02:59:07.182Z,21.90
2019-05-01T03:00:07.178Z,22.20
2019-05-01T03:01:07.168Z,22.00
2019-05-01T03:02:08.428Z,20.60
2019-05-01T03:03:07.165Z,21.70
2019-05-01T03:04:07.198Z,21.10
2019-05-01T03:05:07.116Z,20.40
2019-05-01T03:06:07.126Z,21.00
2019-05-01T03:07:07.134Z,20.60
2019-05-01T03:08:07.815Z,20.80
2019-05-01T03:09:07.074Z,21.30
2019-05-01T03:10:09.529Z,21.30
2019-05-01T03:11:07.119Z,21.20
2019-05-01T03:12:07.081Z,22.00
2019-05-01T03:13:07.086Z,21.50
2019-05-01T03:14:07.860Z,21.90
2019-05-01T03:15:07.041Z,21.10
2019-05-01T03:16:07.052Z,21.70
2019-05-01T03:17:06.998Z,21.50
2019-05-01T03:18:06.979Z,20.70
2019-05-01T03:19:10.260Z,20.50
2019-05-01T03:20:07.042Z,20.80
2019-05-01T03:21:07.085Z,20.80
2019-05-01T03:22:06.933Z,21.00
2019-05-01T03:23:06.924Z,21.20
2019-05-01T03:24:06.942Z,20.60
2019-05-01T03:25:06.908Z,21.10
2019-05-01T03:26:06.977Z,21.00
2019-05-01T03:27:06.884Z,20.40
2019-05-01T03:28:07.803Z,20.20
2019-05-01T03:29:06.869Z,20.20
2019-05-01T03:30:06.847Z,20.10
2019-05-01T03:31:07.806Z,20.90
2019-05-01T03:32:18.305Z,19.80
2019-05-01T03:33:07.826Z,20.20
2019-05-01T03:34:06.810Z,19.90
2019-05-01T03:35:07.291Z,20.00
2019-05-01T03:36:06.826Z,19.90
2019-05-01T03:37:06.824Z,18.90
2019-05-01T03:38:06.761Z,19.20
2019-05-01T03:39:06.747Z,19.80
2019-05-01T03:40:06.740Z,20.40
2019-05-01T03:41:06.747Z,19.50
2019-05-01T03:42:06.839Z,19.50
2019-05-01T03:43:06.709Z,19.50
2019-05-01T03:44:06.685Z,19.70
2019-05-01T03:45:06.696Z,20.30
2019-05-01T03:46:06.677Z,19.90
2019-05-01T03:47:06.658Z,20.20
2019-05-01T03:48:06.702Z,19.70
2019-05-01T03:49:06.662Z,20.00
2019-05-01T03:50:06.636Z,20.20
2019-05-01T03:51:06.656Z,20.30
2019-05-01T03:52:06.620Z,20.40
2019-05-01T03:53:06.631Z,20.10
2019-05-01T03:54:06.600Z,19.60
2019-05-01T03:55:06.562Z,20.50
2019-05-01T03:56:07.288Z,20.90
2019-05-01T03:57:06.561Z,20.80
2019-05-01T03:58:06.540Z,21.50
2019-05-01T03:59:06.571Z,21.10
2019-05-01T04:00:07.355Z,21.80
2019-05-01T04:01:06.504Z,21.60
2019-05-01T04:02:06.542Z,21.80
2019-05-01T04:03:06.515Z,22.50
2019-05-01T04:04:06.539Z,22.10
2019-05-01T04:05:07.335Z,21.20
2019-05-01T04:06:06.440Z,21.40
2019-05-01T04:07:06.437Z,21.30
2019-05-01T04:08:06.508Z,22.30
2019-05-01T04:09:06.470Z,22.80
2019-05-01T04:10:06.439Z,23.20
2019-05-01T04:11:06.447Z,22.40
2019-05-01T04:12:06.415Z,22.10
2019-05-01T04:13:06.374Z,22.90
2019-05-01T04:14:06.390Z,22.40
2019-05-01T04:15:06.470Z,21.60
2019-05-01T04:16:06.391Z,22.60
2019-05-01T04:17:06.353Z,21.50
2019-05-01T04:18:06.391Z,22.50
2019-05-01T04:19:06.311Z,22.40
2019-05-01T04:20:06.364Z,21.70
2019-05-01T04:21:06.283Z,22.00
2019-05-01T04:22:06.290Z,22.20
2019-05-01T04:23:06.263Z,22.80
2019-05-01T04:24:06.263Z,22.50
2019-05-01T04:25:06.253Z,22.10
2019-05-01T04:26:06.247Z,22.60
2019-05-01T04:27:06.281Z,21.90
2019-05-01T04:28:06.263Z,23.20
2019-05-01T04:29:06.195Z,22.50
2019-05-01T04:30:06.201Z,22.10
2019-05-01T04:31:06.199Z,22.20
2019-05-01T04:32:06.196Z,23.00
2019-05-01T04:33:06.201Z,22.20
2019-05-01T04:34:06.161Z,23.10
2019-05-01T04:35:06.124Z,22.70
2019-05-01T04:36:06.124Z,23.00
2019-05-01T04:37:06.133Z,22.70
2019-05-01T04:38:06.139Z,22.90
2019-05-01T04:39:06.104Z,23.00
2019-05-01T04:40:06.089Z,23.30
2019-05-01T04:41:06.111Z,23.50
2019-05-01T04:42:06.055Z,22.50
2019-05-01T04:43:06.374Z,22.80
2019-05-01T04:44:06.064Z,22.50
2019-05-01T04:45:06.042Z,22.50
2019-05-01T04:46:05.999Z,23.00
2019-05-01T04:47:06.015Z,22.70
2019-05-01T04:48:06.013Z,23.30
2019-05-01T04:49:06.003Z,23.40
2019-05-01T04:50:05.968Z,22.80
2019-05-01T04:51:05.972Z,23.00
2019-05-01T04:52:06.010Z,24.20
2019-05-01T04:53:05.992Z,22.50
2019-05-01T04:54:05.981Z,23.50
2019-05-01T04:55:05.903Z,24.00
2019-05-01T04:56:05.909Z,23.70
2019-05-01T04:57:05.908Z,23.90
2019-05-01T04:58:05.878Z,23.30
2019-05-01T04:59:05.900Z,23.20
2019-05-01T05:00:05.956Z,23.30
2019-05-01T05:01:05.839Z,23.60
2019-05-01T05:02:05.840Z,24.30
2019-05-01T05:03:05.843Z,23.60
2019-05-01T05:04:05.802Z,24.30
2019-05-01T05:05:05.856Z,24.10
2019-05-01T05:06:06.017Z,23.00
2019-05-01T05:07:05.768Z,24.40
2019-05-01T05:08:05.796Z,24.10
2019-05-01T05:09:05.748Z,23.70
2019-05-01T05:10:05.739Z,24.70
2019-05-01T05:11:05.753Z,24.50
2019-05-01T05:12:05.731Z,24.60
2019-05-01T05:13:05.715Z,23.90
2019-05-01T05:14:05.721Z,24.80
2019-05-01T05:15:05.683Z,25.60
2019-05-01T05:16:05.731Z,23.70
2019-05-01T05:17:05.680Z,23.50
2019-05-01T05:18:05.651Z,24.00
2019-05-01T05:19:05.651Z,24.00
2019-05-01T05:20:05.656Z,24.20
2019-05-01T05:21:05.615Z,24.20
2019-05-01T05:22:05.665Z,24.30
2019-05-01T05:23:05.617Z,24.60
2019-05-01T05:24:05.589Z,24.30
2019-05-01T05:25:05.590Z,24.60
2019-05-01T05:26:05.563Z,24.60
2019-05-01T05:27:05.601Z,24.10
2019-05-01T05:28:05.547Z,23.60
2019-05-01T05:29:05.553Z,24.80
2019-05-01T05:30:05.525Z,24.30
2019-05-01T05:31:05.532Z,24.00
2019-05-01T05:32:05.543Z,24.70
2019-05-01T05:33:17.655Z,23.90
2019-05-01T05:34:05.484Z,25.10
2019-05-01T05:35:05.467Z,24.80
2019-05-01T05:36:05.472Z,25.60
2019-05-01T05:37:05.475Z,23.80
2019-05-01T05:38:05.473Z,24.50
2019-05-01T05:39:05.423Z,24.00
2019-05-01T05:40:05.414Z,24.10
2019-05-01T05:41:05.402Z,24.50
2019-05-01T05:42:05.399Z,24.50
2019-05-01T05:43:05.406Z,25.00
2019-05-01T05:44:05.369Z,24.70
2019-05-01T05:45:05.358Z,24.70
2019-05-01T05:46:05.356Z,24.20
2019-05-01T05:47:05.330Z,24.00
2019-05-01T05:48:05.363Z,23.80
2019-05-01T05:49:05.307Z,24.30
2019-05-01T05:50:05.299Z,24.20
2019-05-01T05:51:05.292Z,24.60
2019-05-01T05:52:05.286Z,24.20
2019-05-01T05:53:05.282Z,24.00
2019-05-01T05:54:05.286Z,24.20
2019-05-01T05:55:05.246Z,24.10
2019-05-01T05:56:05.241Z,23.60
2019-05-01T05:57:05.222Z,24.30
2019-05-01T05:58:05.212Z,24.50
2019-05-01T05:59:05.528Z,24.30
2019-05-01T06:00:05.200Z,23.20
2019-05-01T06:01:05.181Z,23.40
2019-05-01T06:02:05.164Z,24.00
2019-05-01T06:03:05.156Z,23.70
2019-05-01T06:04:05.188Z,23.50
2019-05-01T06:05:05.144Z,24.10
2019-05-01T06:06:05.139Z,24.10
2019-05-01T06:07:05.113Z,23.60
2019-05-01T06:08:05.103Z,23.30
2019-05-01T06:09:09.032Z,23.70
2019-05-01T06:10:05.117Z,23.40
2019-05-01T06:11:05.081Z,23.20
2019-05-01T06:12:08.745Z,24.00
2019-05-01T06:13:05.047Z,23.70
2019-05-01T06:14:05.034Z,23.30
2019-05-01T06:15:06.425Z,23.90
2019-05-01T06:16:05.022Z,22.80
2019-05-01T06:17:05.010Z,23.30
2019-05-01T06:18:05.945Z,22.70
2019-05-01T06:19:04.976Z,23.70
2019-05-01T06:20:04.996Z,24.00
2019-05-01T06:21:05.000Z,23.20
2019-05-01T06:22:09.982Z,23.60
2019-05-01T06:23:04.956Z,22.40
2019-05-01T06:24:06.680Z,23.70
2019-05-01T06:25:04.961Z,22.90
2019-05-01T06:26:04.914Z,23.00
2019-05-01T06:27:08.919Z,22.80
2019-05-01T06:28:04.937Z,23.40
2019-05-01T06:29:04.884Z,23.30
2019-05-01T06:30:06.521Z,23.60
2019-05-01T06:31:04.901Z,23.30
2019-05-01T06:32:04.868Z,22.80
2019-05-01T06:33:09.583Z,22.80
2019-05-01T06:34:04.834Z,22.90
2019-05-01T06:35:04.847Z,23.40
2019-05-01T06:36:08.787Z,23.20
2019-05-01T06:37:04.779Z,23.20
2019-05-01T06:38:04.806Z,23.50
2019-05-01T06:39:06.804Z,22.40
2019-05-01T06:40:04.795Z,23.10
2019-05-01T06:41:04.735Z,22.90
2019-05-01T06:42:04.729Z,23.30
2019-05-01T06:43:04.808Z,22.80
2019-05-01T06:44:07.336Z,23.20
2019-05-01T06:45:04.724Z,22.60
2019-05-01T06:46:04.702Z,23.20
2019-05-01T06:47:05.139Z,23.00
2019-05-01T06:48:04.740Z,22.90
2019-05-01T06:49:06.919Z,23.20
2019-05-01T06:50:06.037Z,23.10
2019-05-01T06:51:04.643Z,23.70
2019-05-01T06:52:04.658Z,23.10
2019-05-01T06:53:06.092Z,23.20
2019-05-01T06:54:04.591Z,23.10
2019-05-01T06:55:04.609Z,22.40
2019-05-01T06:56:04.585Z,22.70
2019-05-01T06:57:04.570Z,22.90
2019-05-01T06:58:04.550Z,23.70
2019-05-01T06:59:04.539Z,22.60
2019-05-01T07:00:08.176Z,23.30
2019-05-01T07:01:04.527Z,23.30
2019-05-01T07:02:04.518Z,23.30
2019-05-01T07:03:06.065Z,23.80
2019-05-01T07:04:05.498Z,23.50
2019-05-01T07:05:04.491Z,23.00
2019-05-01T07:06:14.109Z,23.30
2019-05-01T07:07:06.671Z,23.50
2019-05-01T07:08:04.443Z,22.80
2019-05-01T07:09:07.006Z,23.50
2019-05-01T07:10:04.419Z,23.00
2019-05-01T07:11:04.455Z,23.00
2019-05-01T07:12:04.401Z,23.00
2019-05-01T07:13:05.559Z,23.20
2019-05-01T07:14:04.383Z,23.20
2019-05-01T07:15:04.400Z,22.70
2019-05-01T07:16:04.413Z,22.20
2019-05-01T07:17:04.337Z,22.70
2019-05-01T07:18:04.340Z,22.10
2019-05-01T07:19:05.980Z,22.00
2019-05-01T07:20:04.321Z,22.00
2019-05-01T07:21:04.295Z,22.80
2019-05-01T07:22:06.380Z,22.40
2019-05-01T07:23:04.278Z,22.20
2019-05-01T07:24:04.298Z,21.60
2019-05-01T07:25:05.234Z,23.00
2019-05-01T07:26:04.256Z,22.10
2019-05-01T07:27:04.279Z,22.60
2019-05-01T07:28:04.227Z,22.10
2019-05-01T07:29:06.036Z,22.00
2019-05-01T07:30:05.205Z,22.60
2019-05-01T07:31:05.248Z,22.60
2019-05-01T07:32:06.379Z,23.00
2019-05-01T07:33:04.217Z,22.50
2019-05-01T07:34:16.035Z,22.70
2019-05-01T07:35:04.220Z,22.20
2019-05-01T07:36:07.579Z,22.00
2019-05-01T07:37:05.126Z,22.50
2019-05-01T07:38:04.110Z,22.40
2019-05-01T07:39:04.103Z,22.30
2019-05-01T07:40:04.146Z,22.50
2019-05-01T07:41:05.162Z,22.30
2019-05-01T07:42:07.797Z,22.60
2019-05-01T07:43:04.073Z,21.70
2019-05-01T07:44:04.045Z,22.20
2019-05-01T07:45:08.232Z,22.20
2019-05-01T07:46:05.066Z,22.40
2019-05-01T07:47:04.030Z,21.90
2019-05-01T07:48:05.579Z,22.40
2019-05-01T07:49:04.005Z,21.80
2019-05-01T07:50:03.976Z,22.90
2019-05-01T07:51:06.960Z,22.00
2019-05-01T07:52:04.035Z,21.10
2019-05-01T07:53:03.970Z,21.40
2019-05-01T07:54:08.508Z,21.40
2019-05-01T07:55:03.952Z,21.80
2019-05-01T07:56:03.911Z,21.30
2019-05-01T07:57:04.885Z,21.70
2019-05-01T07:58:03.896Z,21.70
2019-05-01T07:59:03.895Z,21.60
2019-05-01T08:00:08.109Z,21.00
2019-05-01T08:01:03.889Z,21.80
2019-05-01T08:02:03.847Z,22.30
2019-05-01T08:03:07.200Z,22.10
2019-05-01T08:04:03.834Z,22.70
2019-05-01T08:05:04.916Z,21.90
2019-05-01T08:06:04.806Z,22.10
2019-05-01T08:07:03.824Z,23.40
2019-05-01T08:08:07.950Z,22.90
2019-05-01T08:09:03.814Z,23.70
2019-05-01T08:10:03.774Z,22.10
2019-05-01T08:11:05.289Z,23.00
2019-05-01T08:12:03.765Z,23.40
2019-05-01T08:13:03.736Z,23.60
2019-05-01T08:14:07.539Z,22.80
2019-05-01T08:15:03.709Z,23.60
2019-05-01T08:16:07.049Z,24.00
2019-05-01T08:17:03.695Z,23.80
2019-05-01T08:18:03.716Z,23.50
2019-05-01T08:19:04.277Z,24.50
2019-05-01T08:20:03.702Z,25.00
2019-05-01T08:21:03.655Z,24.90
2019-05-01T08:22:03.650Z,24.60
2019-05-01T08:23:03.634Z,25.80
2019-05-01T08:24:03.671Z,25.50
2019-05-01T08:25:03.666Z,24.60
2019-05-01T08:26:04.063Z,25.70
2019-05-01T08:27:03.620Z,25.40
2019-05-01T08:28:03.566Z,26.40
2019-05-01T08:29:06.930Z,25.70
2019-05-01T08:30:03.565Z,26.40
2019-05-01T08:31:03.582Z,26.60
2019-05-01T08:32:04.632Z,26.10
2019-05-01T08:33:03.515Z,27.00
2019-05-01T08:34:03.521Z,27.70
2019-05-01T08:35:03.514Z,27.20
2019-05-01T08:36:06.812Z,28.00
2019-05-01T08:37:06.357Z,27.40
2019-05-01T08:38:03.456Z,27.20
2019-05-01T08:39:04.895Z,28.50
2019-05-01T08:40:04.435Z,27.40
2019-05-01T08:41:03.437Z,28.00
2019-05-01T08:42:06.941Z,28.00
2019-05-01T08:43:03.404Z,27.90
2019-05-01T08:44:03.395Z,28.10
2019-05-01T08:45:05.039Z,28.80
2019-05-01T08:46:03.383Z,28.70
2019-05-01T08:47:03.417Z,29.30
2019-05-01T08:48:03.351Z,28.70
2019-05-01T08:49:06.858Z,29.10
2019-05-01T08:50:03.335Z,30.40
2019-05-01T08:51:03.314Z,30.60
2019-05-01T08:52:04.720Z,31.10
2019-05-01T08:53:03.335Z,29.90
2019-05-01T08:54:03.293Z,30.30
2019-05-01T08:55:04.338Z,30.30
2019-05-01T08:56:03.275Z,30.30
2019-05-01T08:57:03.256Z,30.70
2019-05-01T08:58:03.288Z,31.10
2019-05-01T08:59:03.228Z,30.30
2019-05-01T09:00:03.233Z,30.40
2019-05-01T09:01:03.208Z,29.60
2019-05-01T09:02:09.435Z,30.30
2019-05-01T09:03:08.652Z,30.50
2019-05-01T09:04:12.636Z,29.20
2019-05-01T09:05:07.126Z,29.90
2019-05-01T09:06:03.161Z,29.30
2019-05-01T09:07:03.207Z,30.90
2019-05-01T09:08:03.173Z,30.10
2019-05-01T09:09:07.976Z,30.50
2019-05-01T09:10:03.126Z,30.60
2019-05-01T09:11:03.142Z,29.90
2019-05-01T09:12:06.858Z,29.50
2019-05-01T09:13:03.141Z,29.10
2019-05-01T09:14:03.067Z,30.10
2019-05-01T09:15:07.150Z,29.80
2019-05-01T09:16:03.062Z,30.90
2019-05-01T09:17:03.049Z,29.20
2019-05-01T09:18:03.020Z,30.20
2019-05-01T09:19:03.046Z,30.80
2019-05-01T09:20:03.000Z,28.90
2019-05-01T09:21:03.007Z,28.90
2019-05-01T09:22:02.981Z,29.60
2019-05-01T09:23:02.969Z,29.00
2019-05-01T09:24:03.013Z,28.40
2019-05-01T09:25:02.950Z,27.70
2019-05-01T09:26:06.778Z,28.10
2019-05-01T09:27:02.938Z,28.10
2019-05-01T09:28:04.167Z,28.70
2019-05-01T09:29:02.949Z,29.00
2019-05-01T09:30:04.531Z,28.50
2019-05-01T09:31:03.417Z,29.40
2019-05-01T09:32:05.005Z,28.20
2019-05-01T09:33:02.874Z,28.70
2019-05-01T09:34:02.886Z,27.60
2019-05-01T09:35:15.191Z,28.50
2019-05-01T09:36:02.845Z,28.40
2019-05-01T09:37:02.853Z,27.50
2019-05-01T09:38:02.829Z,29.00
2019-05-01T09:39:02.810Z,27.60
2019-05-01T09:40:04.070Z,27.20
2019-05-01T09:41:02.779Z,27.60
2019-05-01T09:42:03.196Z,26.70
2019-05-01T09:43:02.791Z,26.90
2019-05-01T09:44:05.787Z,25.70
2019-05-01T09:45:02.764Z,25.60
2019-05-01T09:46:02.717Z,25.70
2019-05-01T09:47:02.743Z,25.20
2019-05-01T09:48:02.707Z,24.80
2019-05-01T09:49:02.687Z,24.60
2019-05-01T09:50:02.685Z,24.80
2019-05-01T09:51:05.426Z,24.50
2019-05-01T09:52:02.652Z,24.60
2019-05-01T09:53:02.678Z,24.10
2019-05-01T09:54:05.711Z,24.90
2019-05-01T09:55:02.636Z,23.90
2019-05-01T09:56:03.182Z,24.70
2019-05-01T09:57:02.627Z,25.20
2019-05-01T09:58:03.001Z,24.40
2019-05-01T09:59:02.597Z,24.30
2019-05-01T10:00:02.565Z,24.50
2019-05-01T10:01:02.567Z,25.10
2019-05-01T10:02:02.932Z,24.10
2019-05-01T10:03:02.542Z,23.30
2019-05-01T10:04:05.521Z,24.20
2019-05-01T10:05:06.641Z,23.90
2019-05-01T10:06:02.505Z,23.50
2019-05-01T10:07:02.507Z,23.30
2019-05-01T10:08:04.048Z,20.50
2019-05-01T10:09:02.467Z,19.30
2019-05-01T10:10:02.488Z,17.30
2019-05-01T10:11:05.226Z,17.00
2019-05-01T10:12:02.440Z,16.00
2019-05-01T10:13:02.431Z,16.10
2019-05-01T10:14:04.161Z,15.70
2019-05-01T10:15:02.448Z,16.60
2019-05-01T10:16:02.412Z,16.00
2019-05-01T10:17:02.402Z,15.90
2019-05-01T10:18:02.379Z,15.30
2019-05-01T10:19:02.735Z,15.40
2019-05-01T10:20:02.376Z,15.60
2019-05-01T10:21:02.385Z,14.20
2019-05-01T10:22:03.664Z,14.70
2019-05-01T10:23:02.351Z,14.70
2019-05-01T10:24:02.310Z,14.00
2019-05-01T10:25:02.305Z,13.30
2019-05-01T10:26:02.292Z,13.40
2019-05-01T10:27:02.270Z,13.40
2019-05-01T10:28:07.166Z,14.00
2019-05-01T10:29:02.250Z,15.50
2019-05-01T10:30:03.101Z,15.20
2019-05-01T10:31:02.247Z,16.40
2019-05-01T10:32:02.216Z,16.00
2019-05-01T10:33:02.235Z,16.00
2019-05-01T10:34:07.141Z,16.60
2019-05-01T10:35:02.185Z,16.90
2019-05-01T10:36:02.181Z,16.30
2019-05-01T10:37:02.159Z,16.80
2019-05-01T10:38:04.758Z,17.60
2019-05-01T10:39:03.139Z,18.10
2019-05-01T10:40:02.160Z,17.80
2019-05-01T10:41:04.288Z,20.00
2019-05-01T10:42:02.117Z,19.00
2019-05-01T10:43:02.131Z,19.60
2019-05-01T10:44:02.132Z,19.00
2019-05-01T10:45:02.095Z,19.90
2019-05-01T10:46:02.097Z,19.90
2019-05-01T10:47:02.299Z,19.00
2019-05-01T10:48:02.073Z,18.40
2019-05-01T10:49:02.034Z,19.60
2019-05-01T10:50:02.020Z,19.30
2019-05-01T10:51:02.026Z,19.50
2019-05-01T10:52:13.597Z,19.80
2019-05-01T10:53:02.041Z,20.00
2019-05-01T10:54:02.000Z,19.40
2019-05-01T10:55:01.965Z,19.50
2019-05-01T10:56:01.951Z,20.30
2019-05-01T10:57:03.432Z,19.60
2019-05-01T10:58:03.444Z,19.70
2019-05-01T10:59:01.945Z,19.80
2019-05-01T11:00:01.944Z,19.00
2019-05-01T11:01:01.901Z,18.30
2019-05-01T11:02:01.894Z,18.70
2019-05-01T11:03:01.894Z,19.70
2019-05-01T11:04:01.922Z,19.30
2019-05-01T11:05:01.875Z,19.00
2019-05-01T11:06:01.875Z,18.70
2019-05-01T11:07:01.838Z,19.40
2019-05-01T11:08:01.845Z,19.50
2019-05-01T11:09:01.815Z,19.70
2019-05-01T11:10:01.837Z,19.50
2019-05-01T11:11:01.797Z,18.60
2019-05-01T11:12:01.774Z,18.20
2019-05-01T11:13:01.774Z,18.40
2019-05-01T11:14:01.768Z,17.90
2019-05-01T11:15:01.788Z,17.00
2019-05-01T11:16:01.741Z,16.10
2019-05-01T11:17:01.745Z,15.00
2019-05-01T11:18:01.753Z,13.50
2019-05-01T11:19:01.703Z,14.30
2019-05-01T11:20:01.691Z,13.90
2019-05-01T11:21:01.716Z,13.90
2019-05-01T11:22:01.677Z,14.00
2019-05-01T11:23:01.694Z,14.10
2019-05-01T11:24:01.642Z,14.00
2019-05-01T11:25:01.679Z,14.20
2019-05-01T11:26:01.645Z,14.20
2019-05-01T11:27:01.655Z,15.20
2019-05-01T11:28:01.631Z,15.00
2019-05-01T11:29:01.624Z,14.50
2019-05-01T11:30:01.583Z,14.50
2019-05-01T11:31:01.579Z,14.20
2019-05-01T11:32:01.590Z,14.00
2019-05-01T11:33:01.546Z,14.50
2019-05-01T11:34:01.544Z,14.40
2019-05-01T11:35:01.525Z,14.10
2019-05-01T11:36:09.178Z,14.60
2019-05-01T11:37:01.520Z,15.50
2019-05-01T11:38:01.543Z,15.40
2019-05-01T11:39:01.484Z,14.90
2019-05-01T11:40:01.488Z,15.40
2019-05-01T11:41:01.459Z,15.70
2019-05-01T11:42:01.449Z,15.10
2019-05-01T11:43:02.807Z,15.40
2019-05-01T11:44:01.442Z,15.60
2019-05-01T11:45:01.454Z,15.20
2019-05-01T11:46:01.421Z,15.90
2019-05-01T11:47:01.393Z,15.70
2019-05-01T11:48:01.387Z,15.60
2019-05-01T11:49:01.373Z,16.00
2019-05-01T11:50:01.412Z,15.40
2019-05-01T11:51:01.369Z,14.70
2019-05-01T11:52:01.353Z,14.20
2019-05-01T11:53:01.331Z,14.80
2019-05-01T11:54:02.312Z,14.60
2019-05-01T11:55:01.379Z,14.10
2019-05-01T11:56:01.304Z,14.00
2019-05-01T11:57:01.299Z,14.30
2019-05-01T11:58:01.270Z,14.80
2019-05-01T11:59:01.260Z,15.00
2019-05-01T12:00:01.255Z,15.10
2019-05-01T12:01:01.285Z,14.70
2019-05-01T12:02:02.563Z,13.80
2019-05-01T12:03:01.238Z,13.50
2019-05-01T12:04:01.207Z,14.10
2019-05-01T12:05:01.206Z,14.00
2019-05-01T12:06:01.243Z,14.50
2019-05-01T12:07:01.189Z,14.90
2019-05-01T12:08:01.169Z,14.40
2019-05-01T12:09:01.165Z,14.90
2019-05-01T12:10:01.174Z,14.60
2019-05-01T12:11:02.099Z,14.70
2019-05-01T12:12:01.613Z,14.40
2019-05-01T12:13:01.106Z,14.60
2019-05-01T12:14:01.109Z,14.10
2019-05-01T12:15:01.121Z,14.00
2019-05-01T12:16:01.073Z,14.10
2019-05-01T12:17:01.100Z,14.20
2019-05-01T12:18:01.062Z,13.70
2019-05-01T12:19:01.092Z,12.90
2019-05-01T12:20:01.048Z,12.70
2019-05-01T12:21:01.019Z,12.70
2019-05-01T12:22:01.011Z,13.30
2019-05-01T12:23:01.003Z,13.20
2019-05-01T12:24:01.023Z,12.90
2019-05-01T12:25:01.016Z,12.90
2019-05-01T12:26:00.999Z,12.50
2019-05-01T12:27:00.957Z,13.20
2019-05-01T12:28:00.949Z,12.60
2019-05-01T12:29:00.938Z,12.50
2019-05-01T12:30:00.964Z,12.10
2019-05-01T12:31:00.923Z,11.90
2019-05-01T12:32:00.914Z,11.30
2019-05-01T12:33:00.895Z,10.00
2019-05-01T12:34:00.891Z,8.40
2019-05-01T12:35:00.946Z,8.10
2019-05-01T12:36:00.859Z,8.80
2019-05-01T12:37:00.863Z,9.20
2019-05-01T12:38:00.871Z,10.10
2019-05-01T12:39:00.836Z,9.60
2019-05-01T12:40:00.834Z,9.70
2019-05-01T12:41:00.835Z,9.60
2019-05-01T12:42:00.796Z,9.10
2019-05-01T12:43:00.859Z,9.80
2019-05-01T12:44:00.769Z,10.00
2019-05-01T12:45:00.815Z,10.10
2019-05-01T12:46:00.747Z,9.50
2019-05-01T12:47:00.746Z,9.90
2019-05-01T12:48:00.740Z,9.30
2019-05-01T12:49:00.747Z,9.70
2019-05-01T12:50:00.739Z,9.60
2019-05-01T12:51:00.703Z,8.50
2019-05-01T12:52:10.235Z,9.40
2019-05-01T12:53:00.685Z,9.40